createdAt,value
2018-07-05T00:02:10.288Z,34.97
2018-07-05T00:04:48.838Z,35.85
2018-07-05T00:07:27.502Z,35.68
2018-07-05T00:10:06.122Z,36.10
2018-07-05T00:12:44.696Z,36.37
2018-07-05T00:15:23.250Z,36.61
2018-07-05T00:18:01.885Z,36.63
2018-07-05T00:20:40.587Z,36.84
2018-07-05T00:23:19.255Z,36.77
2018-07-05T00:25:57.910Z,36.73
2018-07-05T00:28:36.538Z,36.34
2018-07-05T00:31:15.082Z,37.04
2018-07-05T00:33:53.595Z,38.04
2018-07-05T00:36:32.170Z,37.57
2018-07-05T00:39:10.889Z,38.94
2018-07-05T00:41:49.605Z,38.33
2018-07-05T00:44:28.249Z,38.54
2018-07-05T00:47:06.842Z,38.56
2018-07-05T00:49:45.543Z,38.34
2018-07-05T00:52:24.199Z,38.50
2018-07-05T00:55:02.901Z,38.41
2018-07-05T00:57:41.702Z,38.75
2018-07-05T01:00:20.439Z,39.03
2018-07-05T01:02:59.146Z,40.02
2018-07-05T01:05:37.719Z,39.63
2018-07-05T01:08:16.379Z,39.80
2018-07-05T01:10:55.038Z,39.45
2018-07-05T01:13:33.845Z,40.75
2018-07-05T01:16:12.570Z,40.16
2018-07-05T01:18:51.114Z,40.57
2018-07-05T01:21:29.618Z,40.33
2018-07-05T01:24:08.213Z,40.10
2018-07-05T01:26:46.761Z,40.06
2018-07-05T01:29:25.483Z,40.48
2018-07-05T01:32:04.174Z,39.86
2018-07-05T01:34:42.911Z,39.97
2018-07-05T01:37:21.462Z,40.00
2018-07-05T01:40:00.055Z,39.98
2018-07-05T01:42:38.635Z,39.74
2018-07-05T01:45:17.266Z,39.75
2018-07-05T01:47:55.924Z,39.71
2018-07-05T01:50:34.606Z,39.94
2018-07-05T01:53:13.305Z,40.52
2018-07-05T01:55:51.923Z,40.31
2018-07-05T01:58:30.571Z,40.15
2018-07-05T02:01:09.246Z,40.29
2018-07-05T02:03:47.827Z,40.66
2018-07-05T02:06:26.431Z,41.31
2018-07-05T02:09:05.081Z,41.04
2018-07-05T02:11:43.786Z,40.80
2018-07-05T02:14:22.418Z,40.98
2018-07-05T02:17:01.067Z,41.58
2018-07-05T02:19:39.700Z,41.95
2018-07-05T02:22:18.377Z,41.99
2018-07-05T02:24:57.066Z,42.07
2018-07-05T02:27:35.642Z,42.52
2018-07-05T02:30:14.273Z,42.58
2018-07-05T02:32:52.954Z,42.65
2018-07-05T02:35:31.597Z,42.70
2018-07-05T02:38:15.861Z,42.75
2018-07-05T02:40:54.414Z,42.73
2018-07-05T02:43:33.023Z,42.74
2018-07-05T02:46:11.926Z,42.94
2018-07-05T02:48:50.583Z,42.94
2018-07-05T02:51:29.222Z,43.16
2018-07-05T02:54:07.872Z,43.43
2018-07-05T02:56:46.421Z,43.47
2018-07-05T02:59:25.071Z,42.86
2018-07-05T03:02:03.638Z,43.01
2018-07-05T03:04:42.201Z,43.05
2018-07-05T03:07:20.808Z,42.70
2018-07-05T03:09:59.387Z,42.96
2018-07-05T03:12:37.922Z,42.43
2018-07-05T03:15:16.511Z,42.73
2018-07-05T03:17:55.257Z,42.57
2018-07-05T03:20:33.829Z,42.64
2018-07-05T03:23:12.361Z,42.42
2018-07-05T03:25:50.977Z,42.66
2018-07-05T03:28:29.689Z,42.95
2018-07-05T03:31:08.286Z,44.15
2018-07-05T03:33:46.834Z,43.89
2018-07-05T03:36:25.441Z,43.36
2018-07-05T03:39:04.210Z,42.85
2018-07-05T03:41:42.870Z,43.65
2018-07-05T03:44:21.470Z,44.01
2018-07-05T03:47:00.047Z,43.35
2018-07-05T03:49:38.657Z,43.49
2018-07-05T03:52:17.246Z,43.89
2018-07-05T03:54:55.841Z,43.64
2018-07-05T03:57:34.454Z,43.85
2018-07-05T04:00:13.227Z,43.79
2018-07-05T04:02:51.830Z,43.74
2018-07-05T04:05:30.409Z,43.60
2018-07-05T04:08:09.035Z,43.18
2018-07-05T04:10:47.733Z,43.22
2018-07-05T04:13:26.385Z,43.86
2018-07-05T04:16:04.986Z,44.41
2018-07-05T04:18:43.638Z,43.72
2018-07-05T04:21:22.322Z,43.59
2018-07-05T04:24:01.043Z,43.86
2018-07-05T04:26:39.603Z,44.16
2018-07-05T04:29:18.233Z,45.00
2018-07-05T04:31:56.834Z,45.52
2018-07-05T04:34:35.475Z,45.01
2018-07-05T04:37:14.216Z,44.04
2018-07-05T04:39:52.890Z,43.33
2018-07-05T04:42:31.688Z,43.54
2018-07-05T04:45:10.374Z,43.41
2018-07-05T04:47:49.144Z,43.21
2018-07-05T04:50:27.859Z,43.22
2018-07-05T04:53:06.659Z,42.36
2018-07-05T04:55:45.371Z,42.33
2018-07-05T04:58:23.926Z,41.83
2018-07-05T05:01:02.546Z,42.07
2018-07-05T05:03:41.154Z,41.26
2018-07-05T05:06:19.778Z,41.14
2018-07-05T05:08:58.516Z,40.98
2018-07-05T05:11:37.234Z,40.87
2018-07-05T05:14:15.918Z,40.55
2018-07-05T05:16:54.713Z,40.32
2018-07-05T05:19:33.554Z,40.76
2018-07-05T05:22:12.393Z,40.48
2018-07-05T05:24:51.087Z,40.07
2018-07-05T05:27:29.809Z,39.98
2018-07-05T05:30:08.807Z,40.38
2018-07-05T05:32:47.562Z,40.54
2018-07-05T05:35:26.351Z,39.97
2018-07-05T05:38:05.083Z,40.13
2018-07-05T05:40:43.767Z,40.54
2018-07-05T05:43:22.483Z,40.44
2018-07-05T05:46:01.174Z,39.98
2018-07-05T05:48:39.987Z,40.34
2018-07-05T05:51:18.753Z,40.09
2018-07-05T05:53:57.720Z,39.41
2018-07-05T05:56:36.628Z,38.96
2018-07-05T05:59:16.670Z,39.39
2018-07-05T06:01:55.347Z,39.26
2018-07-05T06:04:34.080Z,39.25
2018-07-05T06:07:12.955Z,39.36
2018-07-05T06:09:51.654Z,38.97
2018-07-05T06:12:30.462Z,39.04
2018-07-05T06:15:09.548Z,39.78
2018-07-05T06:17:48.418Z,39.65
2018-07-05T06:20:27.173Z,39.10
2018-07-05T06:23:05.987Z,38.94
2018-07-05T06:25:44.818Z,38.96
2018-07-05T06:28:23.697Z,38.97
2018-07-05T06:31:02.632Z,39.17
2018-07-05T06:33:41.427Z,39.54
2018-07-05T06:36:20.183Z,39.16
2018-07-05T06:38:58.986Z,38.89
2018-07-05T06:41:37.718Z,39.04
2018-07-05T06:44:16.439Z,38.59
2018-07-05T06:46:55.361Z,38.81
2018-07-05T06:49:34.287Z,38.44
2018-07-05T06:52:13.139Z,37.40
2018-07-05T06:54:51.951Z,37.04
2018-07-05T06:57:30.759Z,36.27
2018-07-05T07:00:09.459Z,36.46
2018-07-05T07:02:48.218Z,36.17
2018-07-05T07:05:27.897Z,35.66
2018-07-05T07:08:06.621Z,35.62
2018-07-05T07:10:45.218Z,35.65
2018-07-05T07:13:23.954Z,35.48
2018-07-05T07:16:02.733Z,35.73
2018-07-05T07:18:41.616Z,34.74
2018-07-05T07:21:20.323Z,34.86
2018-07-05T07:23:59.171Z,35.12
2018-07-05T07:26:38.767Z,34.57
2018-07-05T07:29:17.683Z,34.45
2018-07-05T07:31:56.463Z,33.92
2018-07-05T07:34:35.242Z,33.61
2018-07-05T07:37:14.019Z,33.85
2018-07-05T07:39:52.844Z,33.44
2018-07-05T07:42:19.177Z,33.05
2018-07-05T07:44:45.523Z,33.34
2018-07-05T07:47:11.942Z,32.98
2018-07-05T07:49:38.266Z,32.17
2018-07-05T07:52:04.602Z,32.57
2018-07-05T07:54:30.964Z,32.03
2018-07-05T07:56:57.313Z,31.44
2018-07-05T07:59:23.656Z,31.94
2018-07-05T08:01:50.030Z,31.34
2018-07-05T08:04:16.357Z,31.71
2018-07-05T08:06:42.686Z,31.26
2018-07-05T08:09:09.082Z,31.35
2018-07-05T08:11:35.412Z,31.01
2018-07-05T08:14:01.778Z,30.93
2018-07-05T08:16:28.134Z,29.91
2018-07-05T08:18:54.480Z,30.33
2018-07-05T08:21:20.805Z,29.48
2018-07-05T08:23:47.162Z,29.32
2018-07-05T08:26:13.494Z,28.99
2018-07-05T08:28:39.834Z,29.72
2018-07-05T08:31:06.202Z,29.96
2018-07-05T08:33:32.551Z,30.07
2018-07-05T08:35:58.887Z,29.68
2018-07-05T08:38:25.250Z,28.66
2018-07-05T08:40:51.570Z,28.15
2018-07-05T08:43:17.922Z,27.98
2018-07-05T08:45:44.298Z,27.60
2018-07-05T08:48:10.622Z,27.37
2018-07-05T08:50:36.951Z,27.22
2018-07-05T08:53:03.327Z,26.70
2018-07-05T08:55:29.685Z,25.58
2018-07-05T08:57:56.014Z,24.93
2018-07-05T09:00:22.379Z,25.15
2018-07-05T09:02:48.720Z,24.34
2018-07-05T09:05:15.113Z,24.75
2018-07-05T09:07:41.454Z,23.98
2018-07-05T09:10:07.782Z,24.60
2018-07-05T09:12:34.109Z,24.26
2018-07-05T09:15:00.470Z,23.95
2018-07-05T09:17:26.815Z,24.03
2018-07-05T09:19:53.178Z,23.66
2018-07-05T09:22:19.542Z,23.46
2018-07-05T09:24:45.870Z,22.70
2018-07-05T09:27:12.222Z,22.87
2018-07-05T09:29:38.589Z,23.09
2018-07-05T09:32:04.936Z,23.24
2018-07-05T09:34:31.278Z,22.50
2018-07-05T09:36:57.655Z,22.63
2018-07-05T09:39:24.001Z,22.46
2018-07-05T09:41:50.337Z,22.05
2018-07-05T09:44:16.745Z,22.38
2018-07-05T09:46:43.090Z,22.03
2018-07-05T09:49:09.420Z,21.23
2018-07-05T09:51:35.798Z,20.57
2018-07-05T09:54:02.790Z,21.07
2018-07-05T09:56:29.175Z,20.75
2018-07-05T09:58:55.538Z,20.45
2018-07-05T10:01:21.874Z,20.02
2018-07-05T10:03:48.358Z,19.47
2018-07-05T10:06:14.616Z,19.20
2018-07-05T10:08:40.958Z,19.95
2018-07-05T10:11:07.291Z,19.81
2018-07-05T10:13:33.785Z,19.22
2018-07-05T10:16:00.026Z,19.11
2018-07-05T10:18:26.362Z,19.25
2018-07-05T10:20:52.731Z,18.34
2018-07-05T10:23:19.070Z,18.47
2018-07-05T10:25:45.401Z,18.13
2018-07-05T10:28:11.746Z,18.77
2018-07-05T10:30:50.606Z,17.22
2018-07-05T10:33:29.567Z,17.48
2018-07-05T10:35:55.932Z,16.93
2018-07-05T10:38:22.269Z,17.93
2018-07-05T10:41:01.118Z,18.17
2018-07-05T10:43:40.087Z,18.79
2018-07-05T10:46:18.766Z,19.59
2018-07-05T10:48:57.534Z,18.22
2018-07-05T10:51:36.334Z,18.30
2018-07-05T10:54:15.176Z,17.42
2018-07-05T10:56:53.826Z,17.66
2018-07-05T10:59:32.594Z,16.77
2018-07-05T11:02:11.344Z,16.51
2018-07-05T11:04:50.132Z,16.04
2018-07-05T11:07:28.912Z,15.56
2018-07-05T11:10:07.859Z,15.44
2018-07-05T11:12:46.695Z,15.96
2018-07-05T11:15:25.420Z,15.34
2018-07-05T11:18:04.195Z,15.54
2018-07-05T11:20:43.143Z,14.67
2018-07-05T11:23:21.882Z,14.34
2018-07-05T11:26:00.637Z,13.79
2018-07-05T11:28:39.473Z,13.86
2018-07-05T11:31:18.279Z,13.96
2018-07-05T11:33:57.175Z,14.22
2018-07-05T11:36:35.891Z,13.54
2018-07-05T11:39:14.680Z,13.96
2018-07-05T11:41:53.431Z,14.86
2018-07-05T11:44:32.134Z,13.88
2018-07-05T11:47:10.882Z,13.99
2018-07-05T11:49:49.662Z,12.70
2018-07-05T11:52:28.539Z,12.03
2018-07-05T11:55:07.332Z,11.57
2018-07-05T11:57:46.218Z,12.13
2018-07-05T12:00:24.966Z,11.50
2018-07-05T12:03:03.660Z,11.70
2018-07-05T12:05:42.258Z,12.07
2018-07-05T12:08:20.904Z,11.93
2018-07-05T12:10:59.722Z,11.68
2018-07-05T12:13:38.521Z,11.63
2018-07-05T12:16:17.287Z,12.16
2018-07-05T12:18:56.259Z,11.08
2018-07-05T12:21:35.098Z,11.41
2018-07-05T12:24:13.866Z,10.80
2018-07-05T12:26:52.587Z,11.17
2018-07-05T12:29:31.409Z,10.70
2018-07-05T12:32:10.323Z,10.95
2018-07-05T12:34:49.215Z,11.74
2018-07-05T12:37:27.986Z,12.92
2018-07-05T12:40:06.759Z,14.59
2018-07-05T12:42:45.422Z,13.94
2018-07-05T12:45:24.159Z,12.89
2018-07-05T12:48:03.061Z,12.84
2018-07-05T12:50:41.817Z,12.88
2018-07-05T12:53:20.520Z,13.50
2018-07-05T12:55:59.510Z,13.15
2018-07-05T12:58:38.249Z,12.57
2018-07-05T13:01:16.991Z,12.71
2018-07-05T13:03:55.734Z,12.34
2018-07-05T13:06:34.524Z,14.08
2018-07-05T13:09:13.349Z,14.19
2018-07-05T13:11:52.051Z,14.30
2018-07-05T13:14:30.756Z,14.19
2018-07-05T13:17:09.456Z,13.19
2018-07-05T13:19:48.243Z,14.57
2018-07-05T13:22:27.037Z,14.32
2018-07-05T13:25:05.847Z,13.23
2018-07-05T13:27:44.637Z,12.43
2018-07-05T13:30:23.530Z,12.03
2018-07-05T13:33:02.205Z,11.96
2018-07-05T13:35:41.045Z,12.23
2018-07-05T13:38:19.710Z,11.19
2018-07-05T13:40:58.565Z,12.17
2018-07-05T13:43:37.334Z,12.10
2018-07-05T13:46:16.024Z,11.28
2018-07-05T13:48:54.686Z,11.95
2018-07-05T13:51:33.522Z,11.76
2018-07-05T13:54:12.323Z,12.61
2018-07-05T13:56:51.324Z,14.51
2018-07-05T13:59:30.026Z,17.21
2018-07-05T14:02:08.806Z,18.96
2018-07-05T14:04:47.557Z,21.17
2018-07-05T14:07:26.353Z,23.87
2018-07-05T14:10:05.195Z,25.28
2018-07-05T14:12:44.150Z,25.50
2018-07-05T14:15:22.941Z,26.51
2018-07-05T14:18:01.787Z,27.19
2018-07-05T14:20:40.673Z,28.42
2018-07-05T14:23:19.536Z,29.34
2018-07-05T14:25:58.326Z,30.04
2018-07-05T14:28:37.240Z,30.68
2018-07-05T14:31:16.109Z,31.75
2018-07-05T14:33:54.895Z,31.60
2018-07-05T14:36:33.558Z,30.87
2018-07-05T14:39:12.368Z,31.44
2018-07-05T14:41:51.133Z,32.12
2018-07-05T14:44:29.978Z,33.01
2018-07-05T14:47:08.744Z,33.48
2018-07-05T14:49:47.531Z,33.94
2018-07-05T14:52:26.223Z,33.41
2018-07-05T14:55:05.094Z,33.85
2018-07-05T14:57:43.841Z,33.81
2018-07-05T15:00:22.683Z,33.98
2018-07-05T15:03:01.530Z,33.67
2018-07-05T15:05:40.448Z,33.85
2018-07-05T15:08:19.178Z,33.56
2018-07-05T15:10:58.033Z,33.07
2018-07-05T15:13:36.957Z,33.14
2018-07-05T15:16:15.935Z,32.59
2018-07-05T15:18:54.814Z,32.88
2018-07-05T15:21:33.599Z,32.85
2018-07-05T15:24:12.485Z,32.68
2018-07-05T15:26:51.189Z,32.85
2018-07-05T15:29:30.007Z,33.00
2018-07-05T15:32:08.723Z,33.29
2018-07-05T15:34:47.518Z,32.93
2018-07-05T15:37:26.338Z,32.66
2018-07-05T15:40:05.102Z,32.42
2018-07-05T15:42:43.914Z,31.95
2018-07-05T15:45:22.718Z,32.04
2018-07-05T15:48:01.602Z,32.12
2018-07-05T15:50:40.391Z,31.91
2018-07-05T15:53:19.230Z,32.64
2018-07-05T15:55:58.130Z,33.46
2018-07-05T15:58:36.909Z,33.94
2018-07-05T16:01:15.814Z,33.80
2018-07-05T16:03:54.825Z,34.00
2018-07-05T16:06:33.547Z,34.72
2018-07-05T16:09:12.267Z,35.20
2018-07-05T16:11:51.234Z,34.28
2018-07-05T16:14:29.966Z,33.77
2018-07-05T16:17:08.826Z,34.09
2018-07-05T16:19:47.591Z,34.69
2018-07-05T16:22:26.361Z,34.79
2018-07-05T16:25:05.131Z,34.41
2018-07-05T16:27:44.184Z,34.04
2018-07-05T16:30:23.069Z,33.41
2018-07-05T16:33:01.871Z,33.22
2018-07-05T16:35:40.994Z,32.17
2018-07-05T16:38:19.859Z,31.19
2018-07-05T16:40:58.677Z,29.81
2018-07-05T16:43:37.488Z,29.72
2018-07-05T16:46:16.198Z,30.30
2018-07-05T16:48:54.911Z,30.29
2018-07-05T16:51:33.594Z,31.34
2018-07-05T16:54:12.331Z,30.69
2018-07-05T16:56:51.371Z,32.17
2018-07-05T16:59:30.169Z,32.73
2018-07-05T17:02:08.871Z,32.89
2018-07-05T17:04:47.818Z,33.08
2018-07-05T17:07:27.199Z,33.14
2018-07-05T17:10:06.110Z,33.26
2018-07-05T17:12:45.275Z,33.70
2018-07-05T17:15:24.090Z,34.07
2018-07-05T17:18:03.022Z,34.39
2018-07-05T17:20:41.634Z,34.56
2018-07-05T17:23:20.481Z,35.14
2018-07-05T17:25:59.503Z,35.66
2018-07-05T17:28:38.365Z,35.83
2018-07-05T17:31:17.134Z,35.69
2018-07-05T17:33:56.276Z,36.54
2018-07-05T17:36:35.119Z,36.96
2018-07-05T17:39:13.775Z,37.46
2018-07-05T17:41:52.472Z,37.17
2018-07-05T17:44:31.298Z,37.33
2018-07-05T17:47:09.916Z,37.35
2018-07-05T17:49:48.860Z,37.14
2018-07-05T17:52:27.749Z,37.39
2018-07-05T17:55:06.744Z,36.88
2018-07-05T17:57:45.628Z,37.05
2018-07-05T18:00:24.385Z,37.52
2018-07-05T18:03:03.123Z,37.55
2018-07-05T18:05:42.054Z,37.63
2018-07-05T18:08:20.938Z,38.31
2018-07-05T18:10:59.870Z,39.10
2018-07-05T18:13:38.746Z,38.93
2018-07-05T18:16:17.677Z,39.06
2018-07-05T18:18:56.598Z,38.59
2018-07-05T18:21:35.350Z,38.46
2018-07-05T18:24:14.134Z,38.98
2018-07-05T18:26:53.779Z,39.27
2018-07-05T18:29:32.600Z,39.06
2018-07-05T18:32:11.471Z,39.41
2018-07-05T18:34:50.147Z,38.84
2018-07-05T18:37:28.828Z,38.76
2018-07-05T18:40:08.847Z,39.03
2018-07-05T18:42:47.537Z,39.68
2018-07-05T18:45:26.184Z,39.53
2018-07-05T18:48:05.073Z,40.39
2018-07-05T18:50:43.792Z,40.65
2018-07-05T18:53:22.563Z,40.84
2018-07-05T18:56:01.179Z,41.16
2018-07-05T18:58:39.847Z,41.85
2018-07-05T19:01:18.462Z,42.79
2018-07-05T19:03:57.295Z,43.38
2018-07-05T19:06:35.904Z,43.37
2018-07-05T19:09:14.615Z,44.53
2018-07-05T19:11:53.370Z,45.18
2018-07-05T19:14:33.026Z,45.51
2018-07-05T19:17:11.622Z,46.58
2018-07-05T19:19:50.199Z,47.81
2018-07-05T19:22:28.909Z,49.26
2018-07-05T19:25:07.726Z,48.94
2018-07-05T19:27:46.947Z,49.05
2018-07-05T19:30:25.578Z,49.65
2018-07-05T19:33:04.252Z,49.71
2018-07-05T19:35:43.092Z,50.23
2018-07-05T19:38:21.731Z,50.30
2018-07-05T19:41:00.313Z,50.57
2018-07-05T19:43:39.075Z,51.20
2018-07-05T19:46:17.739Z,50.81
2018-07-05T19:48:56.328Z,51.28
2018-07-05T19:51:35.043Z,51.88
2018-07-05T19:54:13.743Z,52.44
2018-07-05T19:56:52.511Z,51.91
2018-07-05T19:59:31.059Z,51.91
2018-07-05T20:02:09.763Z,52.63
2018-07-05T20:04:48.438Z,53.40
2018-07-05T20:07:27.037Z,53.72
2018-07-05T20:10:05.639Z,53.57
2018-07-05T20:12:44.247Z,53.96
2018-07-05T20:15:23.011Z,53.43
2018-07-05T20:18:01.603Z,54.07
2018-07-05T20:20:40.371Z,54.18
2018-07-05T20:23:19.184Z,54.84
2018-07-05T20:25:57.887Z,54.99
2018-07-05T20:28:36.659Z,55.22
2018-07-05T20:31:15.411Z,55.18
2018-07-05T20:33:54.103Z,55.29
2018-07-05T20:36:32.807Z,55.39
2018-07-05T20:39:11.386Z,55.12
2018-07-05T20:41:50.266Z,54.83
2018-07-05T20:44:29.062Z,55.41
2018-07-05T20:47:07.681Z,55.13
2018-07-05T20:49:46.286Z,54.99
2018-07-05T20:52:25.044Z,54.52
2018-07-05T20:55:03.700Z,53.94
2018-07-05T20:57:42.454Z,54.05
2018-07-05T21:00:21.039Z,54.10
2018-07-05T21:02:59.701Z,54.11
2018-07-05T21:05:38.335Z,54.11
2018-07-05T21:08:17.053Z,54.60
2018-07-05T21:10:55.750Z,54.78
2018-07-05T21:13:34.530Z,55.15
2018-07-05T21:16:13.163Z,54.56
2018-07-05T21:18:51.791Z,54.52
2018-07-05T21:21:30.484Z,54.35
2018-07-05T21:24:09.189Z,53.99
2018-07-05T21:26:47.922Z,54.68
2018-07-05T21:29:26.693Z,54.86
2018-07-05T21:32:05.278Z,54.38
2018-07-05T21:34:44.002Z,54.26
2018-07-05T21:37:22.758Z,53.89
2018-07-05T21:40:01.317Z,54.20
2018-07-05T21:42:40.037Z,53.61
2018-07-05T21:45:18.716Z,54.02
2018-07-05T21:47:57.293Z,53.79
2018-07-05T21:50:36.060Z,53.84
2018-07-05T21:53:14.630Z,53.73
2018-07-05T21:55:53.254Z,53.71
2018-07-05T21:58:31.803Z,53.79
2018-07-05T22:01:10.409Z,53.88
2018-07-05T22:03:49.023Z,54.34
2018-07-05T22:06:27.687Z,53.96
2018-07-05T22:09:06.410Z,54.19
2018-07-05T22:11:44.976Z,54.33
2018-07-05T22:14:23.702Z,54.36
2018-07-05T22:17:08.033Z,54.72
2018-07-05T22:19:52.362Z,54.41
2018-07-05T22:22:36.737Z,54.39
2018-07-05T22:25:21.059Z,54.75
2018-07-05T22:28:05.274Z,55.32
2018-07-05T22:30:49.489Z,55.44
2018-07-05T22:33:27.994Z,55.14
2018-07-05T22:36:06.651Z,55.92
2018-07-05T22:38:45.273Z,55.63
2018-07-05T22:41:23.914Z,55.50
2018-07-05T22:44:02.542Z,54.56
2018-07-05T22:46:41.166Z,54.96
2018-07-05T22:49:19.743Z,54.02
2018-07-05T22:51:58.343Z,54.13
2018-07-05T22:54:37.070Z,53.93
2018-07-05T22:57:15.698Z,53.86
2018-07-05T22:59:54.277Z,53.18
2018-07-05T23:02:32.897Z,52.83
2018-07-05T23:05:11.634Z,53.49
2018-07-05T23:07:50.266Z,54.12
2018-07-05T23:10:28.977Z,54.50
2018-07-05T23:13:07.634Z,54.02
2018-07-05T23:15:46.357Z,54.01
2018-07-05T23:18:25.026Z,54.37
2018-07-05T23:21:03.787Z,54.90
2018-07-05T23:23:42.429Z,55.16
2018-07-05T23:26:21.017Z,55.61
2018-07-05T23:28:59.782Z,55.92
2018-07-05T23:31:38.366Z,55.01
2018-07-05T23:34:16.952Z,55.21
2018-07-05T23:36:55.590Z,56.19
2018-07-05T23:39:34.258Z,55.83
2018-07-05T23:42:12.849Z,55.98
2018-07-05T23:44:51.559Z,56.03
2018-07-05T23:47:30.138Z,56.53
2018-07-05T23:50:08.754Z,56.31
2018-07-05T23:52:47.351Z,55.62
2018-07-05T23:55:25.982Z,55.72
2018-07-05T23:58:04.699Z,56.05
